createdAt,value
2022-11-06T00:00:36.575Z,80.49
2022-11-06T00:03:02.917Z,80.27
2022-11-06T00:05:47.907Z,80.15
2022-11-06T00:08:14.668Z,80.22
2022-11-06T00:10:41.367Z,80.05
2022-11-06T00:13:07.695Z,80.18
2022-11-06T00:15:33.998Z,80.20
2022-11-06T00:18:00.352Z,80.24
2022-11-06T00:20:26.695Z,80.12
2022-11-06T00:22:53.079Z,80.08
2022-11-06T00:25:19.417Z,80.06
2022-11-06T00:27:45.834Z,80.09
2022-11-06T00:30:12.424Z,80.04
2022-11-06T00:32:38.766Z,79.96
2022-11-06T00:35:05.491Z,79.99
2022-11-06T00:37:31.852Z,80.00
2022-11-06T00:39:59.412Z,79.94
2022-11-06T00:42:25.747Z,80.15
2022-11-06T00:44:52.057Z,80.18
2022-11-06T00:47:18.405Z,80.22
2022-11-06T00:49:44.713Z,80.30
2022-11-06T00:52:11.102Z,80.36
2022-11-06T00:54:37.436Z,80.31
2022-11-06T00:57:03.742Z,80.13
2022-11-06T00:59:30.075Z,80.34
2022-11-06T01:01:56.561Z,80.37
2022-11-06T01:04:23.683Z,80.44
2022-11-06T01:06:50.836Z,80.58
2022-11-06T01:09:18.843Z,80.81
2022-11-06T01:12:11.636Z,80.50
2022-11-06T01:14:33.046Z,80.54
2022-11-06T01:16:59.355Z,80.57
2022-11-06T01:19:25.660Z,80.59
2022-11-06T01:21:52.942Z,80.66
2022-11-06T01:24:21.062Z,80.70
2022-11-06T01:27:12.083Z,80.58
2022-11-06T01:29:33.929Z,80.43
2022-11-06T01:32:00.346Z,80.37
2022-11-06T01:34:26.727Z,80.57
2022-11-06T01:36:53.022Z,80.23
2022-11-06T01:39:19.429Z,80.20
2022-11-06T01:41:47.047Z,80.32
2022-11-06T01:44:31.461Z,80.38
2022-11-06T01:46:57.780Z,80.25
2022-11-06T01:49:24.103Z,80.17
2022-11-06T01:51:54.227Z,80.30
2022-11-06T01:54:21.511Z,80.28
2022-11-06T01:56:47.915Z,80.15
2022-11-06T01:59:15.441Z,80.41
2022-11-06T02:01:41.837Z,80.38
2022-11-06T02:04:09.928Z,80.60
2022-11-06T02:06:36.438Z,80.75
2022-11-06T02:09:03.103Z,80.84
2022-11-06T02:11:29.400Z,80.96
2022-11-06T02:14:02.327Z,81.12
2022-11-06T02:16:38.670Z,81.18
2022-11-06T02:19:23.683Z,81.24
2022-11-06T02:22:00.142Z,81.41
2022-11-06T02:24:30.600Z,81.30
2022-11-06T02:27:10.928Z,81.37
2022-11-06T02:29:52.569Z,81.30
2022-11-06T02:32:27.916Z,81.34
2022-11-06T02:34:54.408Z,81.33
2022-11-06T02:37:28.031Z,81.29
2022-11-06T02:39:54.415Z,81.12
2022-11-06T02:42:20.748Z,81.26
2022-11-06T02:44:47.927Z,80.99
2022-11-06T02:47:14.226Z,81.06
2022-11-06T02:49:42.166Z,81.10
2022-11-06T02:52:10.191Z,80.94
2022-11-06T02:54:37.746Z,81.02
2022-11-06T02:57:05.215Z,81.14
2022-11-06T02:59:38.628Z,81.05
2022-11-06T03:02:05.849Z,81.18
2022-11-06T03:04:36.860Z,80.96
2022-11-06T03:07:11.270Z,81.05
2022-11-06T03:09:37.570Z,81.06
2022-11-06T03:12:06.902Z,80.95
2022-11-06T03:14:37.486Z,81.04
2022-11-06T03:17:15.514Z,81.26
2022-11-06T03:19:54.101Z,81.28
2022-11-06T03:22:26.173Z,81.05
2022-11-06T03:24:55.526Z,81.31
2022-11-06T03:27:40.676Z,81.19
2022-11-06T03:30:11.390Z,81.01
2022-11-06T03:32:42.926Z,81.07
2022-11-06T03:35:10.850Z,81.12
2022-11-06T03:37:38.929Z,81.21
2022-11-06T03:40:06.134Z,81.30
2022-11-06T03:42:34.381Z,81.10
2022-11-06T03:45:02.144Z,80.97
2022-11-06T03:47:32.805Z,81.12
2022-11-06T03:50:11.502Z,80.95
2022-11-06T03:52:43.394Z,81.04
2022-11-06T03:55:12.854Z,81.15
2022-11-06T03:57:40.426Z,81.24
2022-11-06T04:00:08.547Z,81.14
2022-11-06T04:02:41.902Z,81.28
2022-11-06T04:05:10.067Z,81.31
2022-11-06T04:07:37.009Z,81.25
2022-11-06T04:10:22.573Z,81.64
2022-11-06T04:13:07.509Z,81.79
2022-11-06T04:15:35.505Z,81.70
2022-11-06T04:18:01.790Z,81.70
2022-11-06T04:20:48.089Z,81.91
2022-11-06T04:23:24.344Z,81.78
2022-11-06T04:26:18.580Z,81.88
2022-11-06T04:29:07.752Z,81.72
2022-11-06T04:31:50.533Z,81.96
2022-11-06T04:34:18.028Z,82.03
2022-11-06T04:36:53.067Z,81.95
2022-11-06T04:39:25.618Z,82.17
2022-11-06T04:41:54.993Z,82.17
2022-11-06T04:44:21.276Z,82.19
2022-11-06T04:46:49.202Z,82.07
2022-11-06T04:49:15.582Z,82.07
2022-11-06T04:51:42.559Z,82.19
2022-11-06T04:54:09.198Z,82.08
2022-11-06T04:56:37.985Z,82.03
2022-11-06T04:59:09.123Z,82.19
2022-11-06T05:01:35.624Z,82.20
2022-11-06T05:04:02.036Z,82.38
2022-11-06T05:06:30.163Z,82.45
2022-11-06T05:08:58.151Z,82.40
2022-11-06T05:11:24.494Z,82.41
2022-11-06T05:13:50.810Z,82.56
2022-11-06T05:16:17.158Z,82.69
2022-11-06T05:18:43.454Z,82.71
2022-11-06T05:21:28.543Z,82.93
2022-11-06T05:23:54.874Z,83.04
2022-11-06T05:26:21.198Z,82.96
2022-11-06T05:28:47.528Z,82.77
2022-11-06T05:31:13.880Z,82.94
2022-11-06T05:33:40.244Z,82.92
2022-11-06T05:36:06.799Z,82.88
2022-11-06T05:38:33.458Z,83.05
2022-11-06T05:40:59.799Z,83.01
2022-11-06T05:43:26.318Z,83.31
2022-11-06T05:45:52.655Z,83.18
2022-11-06T05:48:18.974Z,83.31
2022-11-06T05:50:45.283Z,83.44
2022-11-06T05:53:14.631Z,83.46
2022-11-06T05:55:40.943Z,83.50
2022-11-06T05:58:07.445Z,83.77
2022-11-06T06:00:33.792Z,83.87
2022-11-06T06:03:01.343Z,83.99
2022-11-06T06:05:27.712Z,84.20
2022-11-06T06:07:54.052Z,84.05
2022-11-06T06:10:20.376Z,84.12
2022-11-06T06:12:48.743Z,84.24
2022-11-06T06:15:15.120Z,84.45
2022-11-06T06:17:41.488Z,84.23
2022-11-06T06:20:08.167Z,84.23
2022-11-06T06:22:34.494Z,84.26
2022-11-06T06:25:01.064Z,84.12
2022-11-06T06:27:27.618Z,84.30
2022-11-06T06:29:54.548Z,84.12
2022-11-06T06:32:20.931Z,84.08
2022-11-06T06:34:47.343Z,84.10
2022-11-06T06:37:17.695Z,83.88
2022-11-06T06:39:46.513Z,84.14
2022-11-06T06:42:12.839Z,83.97
2022-11-06T06:44:39.206Z,83.87
2022-11-06T06:47:05.719Z,83.68
2022-11-06T06:49:32.011Z,83.62
2022-11-06T06:51:58.310Z,83.53
2022-11-06T06:54:24.627Z,83.42
2022-11-06T06:56:50.938Z,83.46
2022-11-06T06:59:17.299Z,83.11
2022-11-06T07:01:43.771Z,83.31
2022-11-06T07:04:10.313Z,83.02
2022-11-06T07:06:36.637Z,82.54
2022-11-06T07:09:02.927Z,82.30
2022-11-06T07:11:29.200Z,82.38
2022-11-06T07:13:55.574Z,82.64
2022-11-06T07:16:21.975Z,82.59
2022-11-06T07:18:48.301Z,82.80
2022-11-06T07:21:14.628Z,82.52
2022-11-06T07:23:41.011Z,82.36
2022-11-06T07:26:07.353Z,82.18
2022-11-06T07:28:33.685Z,82.21
2022-11-06T07:31:00.618Z,82.29
2022-11-06T07:33:26.929Z,82.67
2022-11-06T07:35:53.230Z,82.59
2022-11-06T07:38:19.573Z,82.48
2022-11-06T07:40:45.873Z,82.51
2022-11-06T07:43:12.165Z,82.58
2022-11-06T07:45:38.714Z,82.47
2022-11-06T07:48:05.825Z,82.64
2022-11-06T07:50:32.410Z,82.82
2022-11-06T07:53:00.967Z,82.95
2022-11-06T07:55:27.270Z,83.20
2022-11-06T07:57:53.625Z,83.18
2022-11-06T08:00:20.935Z,83.15
2022-11-06T08:02:50.844Z,83.18
2022-11-06T08:05:17.141Z,83.31
2022-11-06T08:07:43.519Z,83.28
2022-11-06T08:10:09.814Z,83.19
2022-11-06T08:12:36.110Z,83.28
2022-11-06T08:15:02.522Z,83.33
2022-11-06T08:17:30.047Z,83.28
2022-11-06T08:19:56.429Z,83.42
2022-11-06T08:23:01.828Z,83.78
2022-11-06T08:25:29.174Z,83.79
2022-11-06T08:27:56.789Z,83.82
2022-11-06T08:30:23.354Z,84.01
2022-11-06T08:32:49.872Z,84.08
2022-11-06T08:35:16.590Z,84.01
2022-11-06T08:37:43.050Z,84.28
2022-11-06T08:40:10.114Z,84.46
2022-11-06T08:42:36.824Z,84.52
2022-11-06T08:45:04.434Z,84.44
2022-11-06T08:47:30.815Z,84.69
2022-11-06T08:49:57.361Z,84.35
2022-11-06T08:52:23.864Z,84.45
2022-11-06T08:54:50.890Z,84.60
2022-11-06T08:57:17.996Z,84.61
2022-11-06T08:59:44.379Z,84.58
2022-11-06T09:02:12.733Z,84.44
2022-11-06T09:04:41.462Z,84.82
2022-11-06T09:07:08.372Z,84.68
2022-11-06T09:09:34.754Z,84.82
2022-11-06T09:12:01.867Z,84.49
2022-11-06T09:14:28.370Z,84.29
2022-11-06T09:16:54.767Z,84.56
2022-11-06T09:19:21.182Z,84.63
2022-11-06T09:21:53.423Z,84.65
2022-11-06T09:24:37.198Z,84.75
2022-11-06T09:27:07.569Z,84.50
2022-11-06T09:29:33.959Z,84.90
2022-11-06T09:32:00.356Z,84.80
2022-11-06T09:34:26.757Z,85.20
2022-11-06T09:36:53.159Z,85.06
2022-11-06T09:39:19.538Z,85.41
2022-11-06T09:41:58.440Z,85.19
2022-11-06T09:44:38.418Z,85.43
2022-11-06T09:47:09.227Z,85.42
2022-11-06T09:49:41.190Z,85.69
2022-11-06T09:52:13.378Z,85.62
2022-11-06T09:54:43.414Z,85.55
2022-11-06T09:57:23.320Z,85.66
2022-11-06T09:59:50.332Z,85.62
2022-11-06T10:02:30.359Z,85.59
2022-11-06T10:05:25.935Z,85.73
2022-11-06T10:07:55.269Z,85.59
2022-11-06T10:10:27.534Z,85.42
2022-11-06T10:13:17.052Z,85.39
2022-11-06T10:15:58.136Z,85.87
2022-11-06T10:18:35.333Z,85.57
2022-11-06T10:21:20.055Z,85.79
2022-11-06T10:23:51.930Z,85.82
2022-11-06T10:26:20.398Z,85.33
2022-11-06T10:29:25.646Z,84.49
2022-11-06T10:32:16.761Z,83.76
2022-11-06T10:34:47.498Z,82.76
2022-11-06T10:37:21.262Z,81.67
2022-11-06T10:39:47.993Z,81.81
2022-11-06T10:42:19.937Z,81.81
2022-11-06T10:44:56.737Z,81.00
2022-11-06T10:47:27.246Z,79.98
2022-11-06T10:49:55.854Z,79.12
2022-11-06T10:52:48.333Z,79.37
2022-11-06T10:55:35.834Z,79.59
2022-11-06T10:58:06.238Z,79.50
2022-11-06T11:00:33.729Z,79.41
2022-11-06T11:03:02.387Z,80.02
2022-11-06T11:05:40.606Z,78.32
2022-11-06T11:08:07.643Z,77.80
2022-11-06T11:10:36.201Z,76.70
2022-11-06T11:13:08.472Z,76.44
2022-11-06T11:15:45.006Z,76.83
2022-11-06T11:18:11.588Z,77.21
2022-11-06T11:20:49.350Z,77.76
2022-11-06T11:23:23.097Z,77.13
2022-11-06T11:25:51.695Z,76.80
2022-11-06T11:28:30.860Z,75.21
2022-11-06T11:31:17.529Z,74.21
2022-11-06T11:33:53.295Z,74.07
2022-11-06T11:36:20.021Z,73.29
2022-11-06T11:38:46.580Z,73.32
2022-11-06T11:41:18.902Z,72.05
2022-11-06T11:43:55.873Z,71.42
2022-11-06T11:46:22.343Z,71.17
2022-11-06T11:48:57.454Z,70.75
2022-11-06T11:51:31.135Z,70.32
2022-11-06T11:54:09.202Z,71.52
2022-11-06T11:57:03.704Z,70.60
2022-11-06T11:59:48.580Z,70.75
2022-11-06T12:02:26.821Z,70.59
2022-11-06T12:04:58.243Z,70.47
2022-11-06T12:07:33.984Z,70.16
2022-11-06T12:10:03.817Z,69.79
2022-11-06T12:12:32.358Z,69.56
2022-11-06T12:15:20.277Z,68.53
2022-11-06T12:17:52.328Z,68.80
2022-11-06T12:20:23.487Z,68.83
2022-11-06T12:22:50.717Z,68.23
2022-11-06T12:25:22.250Z,67.73
2022-11-06T12:27:54.130Z,67.51
2022-11-06T12:30:20.808Z,67.49
2022-11-06T12:33:16.142Z,66.51
2022-11-06T12:35:47.594Z,65.92
2022-11-06T12:38:48.853Z,65.56
2022-11-06T12:41:31.410Z,64.97
2022-11-06T12:43:58.364Z,65.25
2022-11-06T12:46:40.912Z,64.88
2022-11-06T12:49:26.544Z,64.15
2022-11-06T12:52:00.032Z,64.31
2022-11-06T12:54:44.879Z,64.51
2022-11-06T12:57:33.423Z,66.27
2022-11-06T13:00:06.480Z,65.40
2022-11-06T13:03:17.199Z,65.47
2022-11-06T13:06:14.255Z,65.68
2022-11-06T13:08:46.870Z,65.36
2022-11-06T13:11:31.742Z,65.39
2022-11-06T13:14:10.098Z,66.65
2022-11-06T13:16:44.976Z,66.63
2022-11-06T13:19:17.190Z,65.96
2022-11-06T13:21:52.727Z,64.74
2022-11-06T13:24:40.287Z,65.08
2022-11-06T13:27:18.256Z,65.17
2022-11-06T13:29:46.773Z,65.07
2022-11-06T13:32:17.806Z,64.77
2022-11-06T13:34:48.234Z,64.67
2022-11-06T13:37:17.824Z,65.24
2022-11-06T13:39:52.220Z,65.46
2022-11-06T13:42:31.349Z,65.17
2022-11-06T13:44:58.308Z,65.23
2022-11-06T13:48:00.017Z,65.45
2022-11-06T13:50:39.634Z,65.78
2022-11-06T13:53:16.293Z,67.03
2022-11-06T13:55:57.517Z,68.12
2022-11-06T13:58:54.602Z,66.28
2022-11-06T14:01:39.723Z,67.18
2022-11-06T14:04:26.171Z,67.00
2022-11-06T14:06:54.803Z,67.57
2022-11-06T14:09:24.606Z,67.07
2022-11-06T14:11:56.237Z,67.05
2022-11-06T14:14:22.577Z,67.06
2022-11-06T14:17:18.447Z,67.91
2022-11-06T14:19:50.076Z,67.48
2022-11-06T14:22:24.222Z,67.16
2022-11-06T14:24:50.671Z,66.91
2022-11-06T14:27:22.910Z,66.52
2022-11-06T14:30:08.047Z,66.23
2022-11-06T14:32:40.988Z,66.81
2022-11-06T14:35:29.192Z,67.93
2022-11-06T14:38:28.950Z,68.19
2022-11-06T14:40:55.546Z,68.73
2022-11-06T14:43:26.535Z,68.30
2022-11-06T14:46:16.153Z,69.65
2022-11-06T14:48:48.298Z,69.66
2022-11-06T14:51:15.537Z,69.51
2022-11-06T14:53:48.010Z,69.32
2022-11-06T14:56:24.542Z,70.59
2022-11-06T14:58:54.508Z,71.38
2022-11-06T15:01:27.487Z,71.88
2022-11-06T15:03:55.830Z,71.76
2022-11-06T15:06:30.931Z,72.16
2022-11-06T15:09:00.582Z,71.97
2022-11-06T15:11:29.933Z,72.36
2022-11-06T15:13:56.666Z,72.66
2022-11-06T15:16:24.283Z,72.99
2022-11-06T15:18:51.175Z,72.95
2022-11-06T15:21:30.317Z,72.94
2022-11-06T15:24:08.698Z,72.78
2022-11-06T15:26:44.657Z,72.77
2022-11-06T15:29:17.026Z,73.08
2022-11-06T15:31:46.434Z,73.09
2022-11-06T15:34:31.297Z,73.12
2022-11-06T15:37:13.869Z,73.53
2022-11-06T15:39:56.041Z,73.58
2022-11-06T15:42:28.132Z,74.07
2022-11-06T15:45:25.731Z,74.30
2022-11-06T15:48:20.659Z,74.56
2022-11-06T15:50:47.115Z,74.67
2022-11-06T15:53:13.875Z,75.11
2022-11-06T15:55:48.957Z,75.08
2022-11-06T15:58:18.015Z,74.95
2022-11-06T16:00:45.454Z,75.33
2022-11-06T16:03:17.235Z,75.39
2022-11-06T16:05:44.503Z,74.95
2022-11-06T16:08:12.665Z,74.59
2022-11-06T16:10:39.625Z,75.13
2022-11-06T16:13:06.646Z,75.33
2022-11-06T16:15:45.225Z,75.38
2022-11-06T16:18:16.974Z,75.50
2022-11-06T16:20:50.687Z,74.78
2022-11-06T16:23:31.582Z,74.15
2022-11-06T16:26:04.418Z,75.21
2022-11-06T16:28:32.247Z,75.66
2022-11-06T16:31:08.757Z,75.96
2022-11-06T16:33:35.208Z,74.90
2022-11-06T16:36:09.702Z,74.30
2022-11-06T16:38:41.489Z,74.46
2022-11-06T16:41:09.091Z,74.83
2022-11-06T16:43:35.686Z,75.04
2022-11-06T16:46:08.051Z,75.34
2022-11-06T16:48:43.035Z,75.53
2022-11-06T16:51:10.376Z,75.83
2022-11-06T16:54:10.321Z,76.20
2022-11-06T16:56:37.008Z,76.49
2022-11-06T16:59:08.364Z,75.61
2022-11-06T17:01:40.458Z,75.85
2022-11-06T17:04:29.751Z,76.03
2022-11-06T17:06:57.479Z,76.42
2022-11-06T17:09:34.821Z,76.71
2022-11-06T17:12:02.101Z,76.82
2022-11-06T17:14:29.095Z,77.11
2022-11-06T17:16:58.253Z,77.25
2022-11-06T17:19:26.148Z,77.36
2022-11-06T17:21:53.126Z,77.63
2022-11-06T17:27:06.314Z,77.51
2022-11-06T17:29:35.717Z,77.61
2022-11-06T17:32:02.139Z,78.01
2022-11-06T17:34:28.561Z,78.60
2022-11-06T17:36:55.026Z,78.98
2022-11-06T17:39:22.427Z,79.20
2022-11-06T17:41:49.317Z,79.21
2022-11-06T17:44:16.812Z,79.32
2022-11-06T17:46:45.321Z,79.54
2022-11-06T17:49:17.551Z,79.82
2022-11-06T17:51:53.523Z,79.95
2022-11-06T17:54:22.746Z,80.35
2022-11-06T17:56:53.471Z,80.39
2022-11-06T17:59:20.549Z,80.12
2022-11-06T18:01:53.070Z,80.43
2022-11-06T18:04:21.087Z,80.25
2022-11-06T18:06:49.005Z,80.26
2022-11-06T18:09:15.738Z,80.25
2022-11-06T18:11:42.867Z,79.33
2022-11-06T18:14:09.763Z,78.80
2022-11-06T18:16:43.185Z,78.32
2022-11-06T18:19:11.467Z,77.87
2022-11-06T18:21:37.988Z,77.66
2022-11-06T18:24:08.440Z,77.31
2022-11-06T18:26:37.116Z,76.91
2022-11-06T18:29:04.719Z,77.18
2022-11-06T18:31:31.175Z,76.85
2022-11-06T18:33:57.628Z,76.81
2022-11-06T18:36:24.099Z,76.65
2022-11-06T18:38:52.601Z,76.42
2022-11-06T18:41:24.761Z,76.29
2022-11-06T18:43:59.197Z,75.85
2022-11-06T18:46:29.937Z,75.68
2022-11-06T18:49:22.803Z,75.43
2022-11-06T18:52:56.939Z,75.45
2022-11-06T18:55:24.578Z,75.23
2022-11-06T18:58:16.500Z,74.69
2022-11-06T19:01:05.675Z,74.55
2022-11-06T19:03:33.977Z,74.64
2022-11-06T19:06:00.978Z,74.93
2022-11-06T19:08:28.470Z,74.57
2022-11-06T19:10:56.270Z,74.63
2022-11-06T19:13:34.076Z,74.04
2022-11-06T19:16:01.092Z,73.92
2022-11-06T19:18:32.279Z,73.26
2022-11-06T19:20:59.064Z,72.74
2022-11-06T19:23:25.648Z,72.78
2022-11-06T19:26:04.532Z,72.50
2022-11-06T19:28:38.848Z,72.10
2022-11-06T19:31:06.311Z,71.80
2022-11-06T19:33:35.727Z,71.84
2022-11-06T19:36:02.679Z,71.79
2022-11-06T19:38:29.413Z,72.04
2022-11-06T19:41:03.172Z,72.08
2022-11-06T19:43:29.855Z,72.54
2022-11-06T19:45:56.405Z,72.46
2022-11-06T19:48:22.991Z,72.64
2022-11-06T19:50:59.816Z,72.72
2022-11-06T19:53:27.222Z,72.93
2022-11-06T19:55:54.065Z,72.81
2022-11-06T19:58:20.695Z,72.77
2022-11-06T20:00:50.123Z,72.49
2022-11-06T20:03:17.051Z,72.30
2022-11-06T20:05:43.852Z,72.24
2022-11-06T20:08:14.205Z,72.21
2022-11-06T20:10:41.570Z,72.06
2022-11-06T20:13:08.575Z,71.94
2022-11-06T20:15:35.211Z,71.78
2022-11-06T20:18:04.739Z,71.59
2022-11-06T20:20:35.900Z,71.26
2022-11-06T20:23:03.281Z,71.10
2022-11-06T20:25:30.893Z,71.05
2022-11-06T20:27:58.359Z,70.87
2022-11-06T20:30:25.122Z,70.55
2022-11-06T20:32:51.616Z,70.44
2022-11-06T20:35:19.250Z,70.19
2022-11-06T20:37:46.560Z,69.96
2022-11-06T20:40:14.190Z,70.01
2022-11-06T20:42:41.928Z,70.06
2022-11-06T20:45:09.393Z,70.34
2022-11-06T20:47:36.007Z,70.15
2022-11-06T20:50:02.723Z,70.40
2022-11-06T20:52:29.453Z,70.28
2022-11-06T20:54:56.809Z,70.23
2022-11-06T20:57:24.992Z,70.41
2022-11-06T20:59:52.423Z,70.49
2022-11-06T21:02:19.698Z,70.44
2022-11-06T21:04:48.395Z,70.34
2022-11-06T21:07:15.907Z,70.28
2022-11-06T21:09:43.602Z,70.30
2022-11-06T21:12:11.557Z,70.00
2022-11-06T21:14:41.527Z,69.78
2022-11-06T21:20:22.443Z,69.60
2022-11-06T21:29:27.725Z,69.23
2022-11-06T21:31:54.844Z,69.14
2022-11-06T21:34:22.688Z,69.42
2022-11-06T21:40:38.892Z,69.49
2022-11-06T21:43:12.093Z,69.82
2022-11-06T21:45:48.973Z,70.21
2022-11-06T21:48:32.922Z,70.52
2022-11-06T21:51:05.614Z,71.07
2022-11-06T21:53:51.599Z,71.65
2022-11-06T21:56:23.466Z,72.36
2022-11-06T21:59:12.769Z,72.60
2022-11-06T22:01:39.615Z,72.99
2022-11-06T22:04:06.738Z,73.41
2022-11-06T22:06:42.654Z,73.78
2022-11-06T22:09:10.351Z,74.28
2022-11-06T22:11:42.790Z,74.39
2022-11-06T22:14:14.354Z,74.39
2022-11-06T22:16:42.256Z,74.48
2022-11-06T22:19:09.519Z,74.49
2022-11-06T22:21:40.298Z,74.47
2022-11-06T22:24:14.036Z,74.30
2022-11-06T22:26:42.342Z,74.44
2022-11-06T22:29:12.644Z,74.40
2022-11-06T22:31:40.258Z,74.41
2022-11-06T22:34:53.511Z,74.26
2022-11-06T22:37:23.579Z,74.35
2022-11-06T22:39:52.597Z,74.21
2022-11-06T22:42:20.537Z,74.16
2022-11-06T22:44:47.766Z,74.22
2022-11-06T22:47:20.667Z,74.32
2022-11-06T22:49:50.531Z,74.24
2022-11-06T22:52:18.770Z,74.36
2022-11-06T22:54:46.969Z,74.42
2022-11-06T22:57:14.616Z,74.63
2022-11-06T22:59:47.189Z,74.72
2022-11-06T23:02:30.933Z,75.05
2022-11-06T23:05:25.384Z,75.40
2022-11-06T23:10:52.448Z,75.65
2022-11-06T23:13:23.749Z,75.89
2022-11-06T23:16:00.882Z,75.86
2022-11-06T23:18:29.260Z,76.00
2022-11-06T23:21:26.260Z,76.12
2022-11-06T23:23:52.745Z,76.02
2022-11-06T23:26:19.242Z,76.22
2022-11-06T23:28:46.309Z,76.17
2022-11-06T23:31:15.744Z,76.30
2022-11-06T23:33:43.772Z,76.35
2022-11-06T23:36:15.354Z,76.32
2022-11-06T23:38:54.678Z,76.27
2022-11-06T23:41:43.650Z,76.21
2022-11-06T23:44:35.187Z,76.21
2022-11-06T23:47:03.290Z,76.06
2022-11-06T23:49:31.035Z,76.63
2022-11-06T23:51:59.611Z,76.67
2022-11-06T23:54:26.994Z,76.76
2022-11-06T23:57:27.025Z,77.06
